createdAt,value
2023-05-22T00:01:20.137Z,78.1781
2023-05-22T00:02:22.415Z,78.4550
2023-05-22T00:03:23.580Z,78.7341
2023-05-22T00:04:25.561Z,78.6958
2023-05-22T00:05:27.620Z,78.8884
2023-05-22T00:19:44.210Z,81.1886
2023-05-22T00:20:45.413Z,81.1088
2023-05-22T00:21:47.657Z,81.7021
2023-05-22T00:22:48.903Z,82.4456
2023-05-22T00:23:50.509Z,82.9631
2023-05-22T00:24:51.736Z,83.3730
2023-05-22T00:25:52.660Z,83.5142
2023-05-22T00:26:54.574Z,83.9100
2023-05-22T00:28:07.665Z,84.3337
2023-05-22T00:30:28.721Z,85.1794
2023-05-22T00:31:31.555Z,85.3125
2023-05-22T00:32:32.416Z,85.1456
2023-05-22T00:39:42.846Z,86.4494
2023-05-22T00:40:44.611Z,86.3123
2023-05-22T00:50:31.845Z,86.4178
2023-05-22T00:51:36.505Z,85.8836
2023-05-22T00:58:42.158Z,83.7449
2023-05-22T00:59:44.313Z,83.1606
2023-05-22T01:00:44.909Z,83.1140
2023-05-22T01:01:47.070Z,83.1119
2023-05-22T01:09:25.235Z,82.0808
2023-05-22T01:10:25.970Z,82.4941
2023-05-22T01:11:27.741Z,81.9341
2023-05-22T01:12:29.117Z,82.0127
2023-05-22T01:13:30.333Z,82.1589
2023-05-22T01:19:07.895Z,81.8183
2023-05-22T01:20:08.907Z,82.1533
2023-05-22T01:21:09.290Z,82.0957
2023-05-22T01:22:10.505Z,83.0236
2023-05-22T01:23:10.803Z,83.5590
2023-05-22T01:24:13.035Z,83.1217
2023-05-22T01:25:14.518Z,82.9758
2023-05-22T01:26:16.043Z,83.3974
2023-05-22T01:27:17.199Z,84.2480
2023-05-22T01:28:19.284Z,82.8222
2023-05-22T01:29:20.539Z,82.0615
2023-05-22T01:30:21.949Z,84.1533
2023-05-22T01:31:22.224Z,83.8729
2023-05-22T01:32:23.284Z,83.2492
2023-05-22T01:33:25.220Z,83.8377
2023-05-22T01:34:27.088Z,84.5577
2023-05-22T01:35:29.226Z,84.2973
2023-05-22T01:37:32.328Z,82.5143
2023-05-22T01:38:34.034Z,83.9212
2023-05-22T01:39:35.284Z,83.4438
2023-05-22T01:40:37.013Z,82.3782
2023-05-22T01:41:38.736Z,84.0707
2023-05-22T01:42:40.572Z,85.0338
2023-05-22T01:43:41.351Z,85.5194
2023-05-22T01:45:42.354Z,85.5806
2023-05-22T01:47:42.525Z,85.5756
2023-05-22T01:48:45.139Z,85.6472
2023-05-22T01:49:46.592Z,85.0338
2023-05-22T01:51:49.809Z,83.7765
2023-05-22T01:52:51.690Z,84.0366
2023-05-22T01:54:55.561Z,85.6528
2023-05-22T02:15:14.839Z,87.6804
2023-05-22T02:17:16.794Z,87.7418
2023-05-22T02:21:23.825Z,85.5406
2023-05-22T02:22:24.847Z,85.6643
2023-05-22T02:23:26.286Z,86.0881
2023-05-22T02:24:27.034Z,86.6687
2023-05-22T02:25:29.133Z,86.5167
2023-05-22T02:26:31.350Z,86.2636
2023-05-22T02:27:32.381Z,86.5881
2023-05-22T02:29:35.535Z,87.4311
2023-05-22T02:30:37.448Z,88.0397
2023-05-22T02:32:39.707Z,86.8055
2023-05-22T02:33:41.147Z,85.3192
2023-05-22T02:34:42.928Z,86.2642
2023-05-22T02:37:47.447Z,86.4448
2023-05-22T02:39:49.938Z,86.7061
2023-05-22T02:41:51.989Z,87.6240
2023-05-22T02:43:53.976Z,88.5966
2023-05-22T02:44:55.623Z,87.8453
2023-05-22T02:45:57.691Z,87.4142
2023-05-22T02:47:00.435Z,86.5803
2023-05-22T02:48:00.582Z,86.3728
2023-05-22T02:49:01.888Z,86.1472
2023-05-22T02:50:02.336Z,87.1335
2023-05-22T02:51:02.429Z,86.8022
2023-05-22T02:52:05.830Z,86.9931
2023-05-22T02:53:05.847Z,84.8619
2023-05-22T02:54:07.462Z,84.8811
2023-05-22T02:55:09.151Z,85.7042
2023-05-22T02:56:09.322Z,85.5100
2023-05-22T02:57:10.463Z,85.2841
2023-05-22T02:58:25.802Z,85.7945
2023-05-22T03:00:44.295Z,87.4313
2023-05-22T03:01:46.432Z,87.6462
2023-05-22T03:02:46.261Z,88.3095
2023-05-22T03:04:50.473Z,87.9957
2023-05-22T03:05:51.166Z,86.6162
2023-05-22T03:06:52.473Z,85.0621
2023-05-22T03:07:53.855Z,85.5917
2023-05-22T03:11:55.490Z,87.1901
2023-05-22T03:12:55.568Z,87.8756
2023-05-22T03:13:57.762Z,88.6173
2023-05-22T03:14:59.213Z,88.6860
2023-05-22T03:16:00.710Z,88.9776
2023-05-22T03:18:03.881Z,89.3191
2023-05-22T03:19:05.649Z,89.5975
2023-05-22T03:25:11.072Z,88.6326
2023-05-22T03:26:12.983Z,88.7336
2023-05-22T03:27:14.099Z,87.4990
2023-05-22T03:28:16.284Z,87.5952
2023-05-22T03:29:16.609Z,88.4582
2023-05-22T03:30:16.824Z,89.0958
2023-05-22T03:32:20.596Z,89.6521
2023-05-22T03:33:21.264Z,89.5764
2023-05-22T03:34:21.448Z,89.7503
2023-05-22T03:37:24.066Z,90.3440
2023-05-22T03:38:26.002Z,90.0773
2023-05-22T03:39:27.142Z,89.5416
2023-05-22T03:40:28.531Z,89.0809
2023-05-22T03:41:28.961Z,88.7974
2023-05-22T03:42:30.637Z,88.6084
2023-05-22T03:44:32.395Z,89.1778
2023-05-22T03:45:38.990Z,89.5567
2023-05-22T03:52:41.529Z,90.1507
2023-05-22T03:53:42.955Z,89.9060
2023-05-22T03:54:44.613Z,89.5689
2023-05-22T03:55:46.552Z,89.3209
2023-05-22T03:56:49.129Z,89.1628
2023-05-22T04:05:58.460Z,85.5947
2023-05-22T04:10:02.488Z,88.3452
2023-05-22T04:11:02.831Z,88.8458
2023-05-22T04:12:04.069Z,89.1280
2023-05-22T04:13:04.542Z,89.2325
2023-05-22T04:14:07.854Z,89.3631
2023-05-22T04:15:09.263Z,89.3365
2023-05-22T04:16:10.033Z,88.7801
2023-05-22T04:17:12.286Z,88.4548
2023-05-22T04:18:12.728Z,88.2888
2023-05-22T04:19:13.080Z,88.1155
2023-05-22T04:20:15.656Z,88.4801
2023-05-22T04:21:16.630Z,87.5711
2023-05-22T04:22:18.207Z,86.7542
2023-05-22T04:23:20.538Z,86.2791
2023-05-22T04:24:21.393Z,86.3406
2023-05-22T04:25:24.135Z,86.4620
2023-05-22T04:26:24.002Z,86.3432
2023-05-22T04:41:44.654Z,86.3420
2023-05-22T04:42:46.474Z,86.8208
2023-05-22T04:43:48.450Z,87.5262
2023-05-22T04:44:49.563Z,87.7311
2023-05-22T04:45:51.982Z,88.0316
2023-05-22T04:56:04.229Z,87.9933
2023-05-22T04:57:06.397Z,87.9953
2023-05-22T05:03:14.908Z,87.4381
2023-05-22T05:07:19.280Z,86.0180
2023-05-22T05:08:21.285Z,85.5103
2023-05-22T05:24:40.337Z,77.8250
2023-05-22T05:25:42.226Z,78.2921
2023-05-22T05:26:43.385Z,76.7851
2023-05-22T05:27:44.683Z,78.4708
2023-05-22T05:28:46.415Z,77.2003
2023-05-22T05:29:46.876Z,78.8051
2023-05-22T05:31:50.257Z,77.4859
2023-05-22T05:32:50.179Z,78.5180
2023-05-22T05:42:01.172Z,74.8612
2023-05-22T05:43:02.120Z,75.1151
2023-05-22T05:51:09.566Z,70.9239
2023-05-22T05:52:11.082Z,69.7892
2023-05-22T06:01:22.635Z,70.0945
2023-05-22T06:02:24.326Z,71.2978
2023-05-22T06:03:28.488Z,72.1411
2023-05-22T06:11:35.066Z,71.6578
2023-05-22T06:12:36.493Z,72.3213
2023-05-22T06:13:38.214Z,72.3543
2023-05-22T06:14:39.746Z,71.7596
2023-05-22T06:15:41.683Z,72.0123
2023-05-22T06:16:44.627Z,72.4550
2023-05-22T06:17:44.616Z,70.7207
2023-05-22T06:18:44.725Z,71.3013
2023-05-22T06:19:46.253Z,71.4205
2023-05-22T06:20:47.469Z,70.9415
2023-05-22T06:21:53.000Z,71.2686
2023-05-22T06:22:50.897Z,71.0703
2023-05-22T06:23:52.857Z,71.5449
2023-05-22T06:24:54.096Z,70.4597
2023-05-22T06:26:57.498Z,69.8013
2023-05-22T06:27:59.712Z,69.9889
2023-05-22T06:29:03.226Z,69.2224
2023-05-22T06:36:08.588Z,69.7635
2023-05-22T06:37:10.584Z,70.1360
2023-05-22T06:38:11.810Z,70.0476
2023-05-22T06:39:11.986Z,70.1124
2023-05-22T06:44:46.891Z,68.9000
2023-05-22T06:45:49.146Z,69.3808
2023-05-22T06:52:55.260Z,67.9029
2023-05-22T07:05:09.571Z,68.2944
2023-05-22T07:06:11.976Z,68.2460
2023-05-22T07:07:14.400Z,67.2971
2023-05-22T07:31:45.546Z,64.6658
2023-05-22T07:32:45.655Z,64.7598
2023-05-22T07:33:46.707Z,65.3835
2023-05-22T07:34:48.287Z,64.3749
2023-05-22T07:35:49.668Z,63.9296
2023-05-22T07:36:50.697Z,64.6849
2023-05-22T07:39:54.491Z,65.8206
2023-05-22T07:40:56.576Z,64.7012
2023-05-22T07:42:01.536Z,64.9254
2023-05-22T07:48:03.157Z,64.2634
2023-05-22T07:49:03.869Z,65.2733
2023-05-22T07:50:04.656Z,63.9592
2023-05-22T07:51:06.096Z,63.7909
2023-05-22T07:52:07.886Z,63.8972
2023-05-22T07:53:08.502Z,63.6882
2023-05-22T07:54:09.890Z,63.5378
2023-05-22T07:55:09.893Z,64.0045
2023-05-22T07:56:11.804Z,64.5555
2023-05-22T07:57:13.887Z,64.5694
2023-05-22T07:58:16.783Z,64.5041
2023-05-22T07:59:17.774Z,64.3981
2023-05-22T08:00:19.913Z,63.0717
2023-05-22T08:01:20.496Z,63.1113
2023-05-22T08:04:24.371Z,61.7926
2023-05-22T08:05:25.170Z,60.6753
2023-05-22T08:06:25.570Z,60.7252
2023-05-22T08:07:27.567Z,61.8122
2023-05-22T08:08:32.250Z,60.8052
2023-05-22T08:29:30.828Z,58.3629
2023-05-22T08:30:31.084Z,57.3368
2023-05-22T08:31:32.635Z,58.8308
2023-05-22T08:32:32.894Z,58.9711
2023-05-22T08:33:34.291Z,58.8628
2023-05-22T08:34:35.662Z,57.8809
2023-05-22T08:35:37.387Z,56.2784
2023-05-22T08:36:38.957Z,57.3846
2023-05-22T08:37:40.283Z,57.3193
2023-05-22T08:38:42.041Z,57.0593
2023-05-22T08:39:43.546Z,56.1570
2023-05-22T08:40:47.082Z,56.5417
2023-05-22T08:42:48.575Z,57.2927
2023-05-22T08:43:50.448Z,57.1628
2023-05-22T08:44:51.959Z,55.8755
2023-05-22T08:45:53.526Z,56.1753
2023-05-22T08:46:55.233Z,55.4439
2023-05-22T08:47:57.226Z,55.5157
2023-05-22T08:48:59.258Z,56.6893
2023-05-22T08:50:00.034Z,56.2450
2023-05-22T08:51:00.329Z,56.4689
2023-05-22T08:52:01.777Z,54.8409
2023-05-22T08:53:02.906Z,55.5765
2023-05-22T08:54:03.106Z,54.2293
2023-05-22T08:55:04.574Z,53.7140
2023-05-22T08:56:06.429Z,53.6796
2023-05-22T08:57:08.018Z,54.6412
2023-05-22T08:58:08.669Z,54.5926
2023-05-22T08:59:10.004Z,53.7302
2023-05-22T09:00:10.436Z,53.6899
2023-05-22T09:01:12.334Z,52.5177
2023-05-22T09:02:14.154Z,53.1614
2023-05-22T09:03:15.670Z,53.8440
2023-05-22T09:04:17.558Z,53.9097
2023-05-22T09:05:19.403Z,55.5573
2023-05-22T09:06:21.227Z,55.4624
2023-05-22T09:07:23.020Z,56.7109
2023-05-22T09:08:25.084Z,54.2101
2023-05-22T09:09:26.616Z,55.5257
2023-05-22T09:10:27.077Z,56.4801
2023-05-22T09:11:28.892Z,56.4692
2023-05-22T09:12:30.229Z,55.4332
2023-05-22T09:13:32.077Z,54.9771
2023-05-22T09:14:33.513Z,52.7550
2023-05-22T09:15:35.091Z,53.3222
2023-05-22T09:16:35.824Z,55.1694
2023-05-22T09:20:42.356Z,53.5350
2023-05-22T09:21:42.870Z,55.0021
2023-05-22T09:22:43.733Z,54.5762
2023-05-22T09:23:45.551Z,55.4500
2023-05-22T09:24:47.274Z,55.6678
2023-05-22T09:25:49.244Z,53.9203
2023-05-22T09:26:51.280Z,54.2492
2023-05-22T09:27:52.876Z,55.0716
2023-05-22T09:28:54.278Z,53.2877
2023-05-22T09:30:56.585Z,53.4144
2023-05-22T09:31:56.918Z,53.8286
2023-05-22T09:32:58.937Z,53.9739
2023-05-22T09:33:59.332Z,50.9212
2023-05-22T09:35:01.124Z,50.9995
2023-05-22T09:36:02.129Z,52.2611
2023-05-22T09:37:03.998Z,51.4119
2023-05-22T09:38:05.025Z,52.9560
2023-05-22T09:42:11.409Z,52.2433
2023-05-22T09:43:11.658Z,51.6733
2023-05-22T09:44:12.781Z,51.0109
2023-05-22T09:45:14.139Z,51.1455
2023-05-22T09:46:15.182Z,52.7415
2023-05-22T09:47:17.207Z,52.5414
2023-05-22T09:48:17.392Z,54.4258
2023-05-22T09:49:19.550Z,52.8583
2023-05-22T09:52:23.725Z,52.4024
2023-05-22T09:54:27.302Z,49.8932
2023-05-22T09:55:27.488Z,52.2076
2023-05-22T09:57:29.774Z,52.5783
2023-05-22T09:58:31.492Z,52.0308
2023-05-22T09:59:33.033Z,51.1280
2023-05-22T10:00:34.726Z,52.1990
2023-05-22T10:01:35.264Z,50.4977
2023-05-22T10:02:35.951Z,49.4272
2023-05-22T10:03:37.702Z,47.7391
2023-05-22T10:04:39.775Z,50.7938
2023-05-22T10:05:40.082Z,51.9647
2023-05-22T10:08:44.310Z,49.8082
2023-05-22T10:09:46.345Z,48.5780
2023-05-22T10:10:47.624Z,48.5998
2023-05-22T10:11:49.484Z,51.3415
2023-05-22T10:12:51.361Z,51.2925
2023-05-22T10:13:53.572Z,52.7783
2023-05-22T10:14:54.536Z,52.3699
2023-05-22T10:15:56.426Z,52.7760
2023-05-22T10:16:58.095Z,52.6307
2023-05-22T10:17:59.716Z,51.9903
2023-05-22T10:20:01.173Z,51.1922
2023-05-22T10:21:02.399Z,48.5480
2023-05-22T10:22:02.654Z,48.6269
2023-05-22T10:23:04.314Z,48.0591
2023-05-22T10:24:05.137Z,47.6552
2023-05-22T10:25:10.850Z,47.7837
2023-05-22T10:37:22.778Z,49.2616
2023-05-22T10:38:24.374Z,47.7104
2023-05-22T10:39:24.840Z,48.0799
2023-05-22T10:40:27.450Z,44.7752
2023-05-22T10:41:28.858Z,46.4001
2023-05-22T10:42:30.572Z,48.3925
2023-05-22T10:43:30.639Z,48.5533
2023-05-22T10:44:31.094Z,46.9248
2023-05-22T10:45:32.846Z,47.0473
2023-05-22T10:46:32.830Z,49.2305
2023-05-22T10:47:33.366Z,48.2932
2023-05-22T10:48:34.218Z,46.8238
2023-05-22T10:50:37.113Z,49.2841
2023-05-22T10:51:38.734Z,47.4870
2023-05-22T10:52:40.138Z,47.1590
2023-05-22T10:53:41.883Z,47.5257
2023-05-22T10:56:46.692Z,46.2865
2023-05-22T10:57:48.345Z,48.5139
2023-05-22T10:58:50.163Z,48.0662
2023-05-22T10:59:51.681Z,46.2579
2023-05-22T11:00:53.345Z,45.1734
2023-05-22T11:01:54.300Z,46.2307
2023-05-22T11:12:04.777Z,49.5411
2023-05-22T11:13:05.734Z,49.2076
2023-05-22T11:14:07.655Z,49.2238
2023-05-22T11:15:08.535Z,47.4090
2023-05-22T11:16:09.912Z,44.5389
2023-05-22T11:17:12.860Z,46.1926
2023-05-22T11:21:13.845Z,49.2781
2023-05-22T11:37:32.515Z,48.4432
2023-05-22T11:38:34.176Z,47.9561
2023-05-22T11:39:34.670Z,48.2253
2023-05-22T11:41:36.045Z,48.3459
2023-05-22T11:42:36.385Z,47.9847
2023-05-22T11:43:37.468Z,48.1685
2023-05-22T11:44:39.551Z,47.7126
2023-05-22T11:45:40.592Z,46.5349
2023-05-22T11:46:41.971Z,48.1028
2023-05-22T11:47:43.810Z,45.4275
2023-05-22T11:48:45.837Z,46.7977
2023-05-22T11:49:46.146Z,45.5096
2023-05-22T11:50:48.293Z,44.3095
2023-05-22T11:51:48.888Z,45.4271
2023-05-22T11:52:49.813Z,45.8185
2023-05-22T11:54:51.912Z,45.7618
2023-05-22T11:55:53.032Z,47.7762
2023-05-22T11:56:54.725Z,46.7132
2023-05-22T11:57:56.228Z,48.1731
2023-05-22T11:58:56.428Z,46.9219
2023-05-22T11:59:57.204Z,47.3104
2023-05-22T12:00:57.269Z,45.6893
2023-05-22T12:01:58.289Z,48.2243
2023-05-22T12:03:00.080Z,47.7952
2023-05-22T12:04:00.454Z,47.7459
2023-05-22T12:05:01.554Z,47.1048
2023-05-22T12:06:03.467Z,46.9662
2023-05-22T12:07:04.432Z,48.0717
2023-05-22T12:08:05.041Z,45.7478
2023-05-22T12:11:10.580Z,45.3758
2023-05-22T12:12:11.202Z,44.1122
2023-05-22T12:13:11.241Z,43.9601
2023-05-22T12:15:13.934Z,45.5560
2023-05-22T12:16:14.584Z,47.5062
2023-05-22T12:18:15.068Z,44.9521
2023-05-22T12:19:16.329Z,45.8210
2023-05-22T12:20:18.215Z,42.9538
2023-05-22T12:21:18.794Z,44.5982
2023-05-22T12:22:22.586Z,44.5580
2023-05-22T12:23:20.700Z,42.2895
2023-05-22T12:24:21.542Z,46.9518
2023-05-22T12:25:21.565Z,45.9259
2023-05-22T12:26:23.735Z,45.3036
2023-05-22T12:27:24.898Z,42.2047
2023-05-22T12:28:26.906Z,45.0965
2023-05-22T12:29:28.814Z,42.8503
2023-05-22T12:30:30.719Z,42.3119
2023-05-22T12:31:32.820Z,42.8033
2023-05-22T12:32:33.066Z,43.2584
2023-05-22T12:33:35.088Z,42.2087
2023-05-22T12:34:36.691Z,43.7329
2023-05-22T12:35:38.295Z,43.1947
2023-05-22T12:36:38.538Z,43.4013
2023-05-22T12:37:40.643Z,43.5358
2023-05-22T12:38:41.172Z,45.6337
2023-05-22T12:39:42.142Z,46.1745
2023-05-22T12:40:43.909Z,44.3793
2023-05-22T12:41:44.500Z,41.5381
2023-05-22T12:42:45.570Z,41.4572
2023-05-22T12:47:53.692Z,45.3764
2023-05-22T12:48:55.442Z,45.5653
2023-05-22T12:49:56.815Z,45.3726
2023-05-22T12:50:57.263Z,47.4855
2023-05-22T12:51:57.920Z,47.3865
2023-05-22T12:52:58.053Z,47.6704
2023-05-22T12:53:59.186Z,47.8200
2023-05-22T12:55:00.590Z,44.6185
2023-05-22T12:56:00.908Z,44.7234
2023-05-22T12:57:02.944Z,41.5037
2023-05-22T12:58:02.977Z,41.8650
2023-05-22T13:00:05.312Z,42.8757
2023-05-22T13:01:06.778Z,44.2553
2023-05-22T13:02:08.184Z,44.1840
2023-05-22T13:03:09.897Z,42.0059
2023-05-22T13:04:11.275Z,39.9290
2023-05-22T13:05:11.803Z,41.7264
2023-05-22T13:06:13.380Z,42.2135
2023-05-22T13:07:14.397Z,42.6873
2023-05-22T13:08:14.601Z,41.9024
2023-05-22T13:09:15.081Z,43.1141
2023-05-22T13:10:16.408Z,42.3830
2023-05-22T13:11:17.576Z,40.3965
2023-05-22T13:12:18.031Z,42.0936
2023-05-22T13:13:19.002Z,42.3743
2023-05-22T13:14:20.761Z,42.6087
2023-05-22T13:15:22.356Z,40.8221
2023-05-22T13:16:23.129Z,42.3264
2023-05-22T13:18:25.340Z,41.7893
2023-05-22T13:19:27.574Z,39.5303
2023-05-22T13:20:28.141Z,41.6362
2023-05-22T13:21:29.545Z,40.4928
2023-05-22T13:22:30.149Z,41.4606
2023-05-22T13:23:30.196Z,42.4961
2023-05-22T13:24:30.518Z,41.6449
2023-05-22T13:25:31.194Z,42.0991
2023-05-22T13:26:31.408Z,42.1430
2023-05-22T13:27:34.314Z,41.8355
2023-05-22T13:34:41.230Z,44.3615
2023-05-22T13:37:45.673Z,44.2394
2023-05-22T13:40:48.976Z,44.3733
2023-05-22T13:51:57.949Z,47.5283
2023-05-22T13:52:58.078Z,45.6393
2023-05-22T13:53:58.403Z,41.8471
2023-05-22T13:54:59.928Z,40.8967
2023-05-22T13:56:01.436Z,41.7255
2023-05-22T14:03:09.553Z,38.6903
2023-05-22T14:05:10.201Z,43.7281
2023-05-22T14:06:13.811Z,43.4558
2023-05-22T14:07:13.861Z,43.6569
2023-05-22T14:08:15.708Z,40.8525
2023-05-22T14:09:17.248Z,41.1502
2023-05-22T14:11:20.449Z,47.1570
2023-05-22T14:12:21.166Z,46.1818
2023-05-22T14:13:22.635Z,46.8332
2023-05-22T14:15:26.742Z,47.9389
2023-05-22T14:16:28.109Z,49.1816
2023-05-22T14:17:29.402Z,45.1264
2023-05-22T14:18:30.802Z,45.5624
2023-05-22T14:19:33.395Z,45.2586
2023-05-22T14:20:33.553Z,42.6037
2023-05-22T14:21:35.681Z,42.8393
2023-05-22T14:22:55.895Z,41.3222
2023-05-22T14:26:08.789Z,41.4054
2023-05-22T14:27:11.095Z,44.8231
2023-05-22T14:28:10.976Z,45.4361
2023-05-22T14:29:10.970Z,45.0613
2023-05-22T14:30:12.989Z,45.6156
2023-05-22T14:31:14.331Z,45.7272
2023-05-22T14:32:16.389Z,47.0371
2023-05-22T14:33:17.950Z,45.1340
2023-05-22T14:34:19.684Z,45.8469
2023-05-22T14:35:21.357Z,45.4657
2023-05-22T14:36:21.647Z,43.0615
2023-05-22T14:37:23.155Z,41.4227
2023-05-22T14:38:23.689Z,42.2454
2023-05-22T14:39:25.573Z,42.2307
2023-05-22T14:40:27.143Z,40.5776
2023-05-22T14:41:27.401Z,42.0739
2023-05-22T14:42:28.901Z,40.9197
2023-05-22T14:43:30.207Z,41.8773
2023-05-22T14:44:31.720Z,42.7733
2023-05-22T14:45:33.248Z,40.1448
2023-05-22T14:46:35.091Z,41.1276
2023-05-22T14:47:36.321Z,42.7398
2023-05-22T14:48:37.247Z,42.0952
2023-05-22T14:49:37.973Z,40.3326
2023-05-22T14:50:39.274Z,39.1507
2023-05-22T14:51:40.730Z,39.6239
2023-05-22T14:52:41.152Z,39.4553
2023-05-22T14:53:42.744Z,41.0377
2023-05-22T14:54:44.192Z,39.0770
2023-05-22T14:55:45.536Z,41.3842
2023-05-22T14:56:47.363Z,37.7018
2023-05-22T14:57:48.730Z,41.4656
2023-05-22T14:58:49.695Z,41.9392
2023-05-22T14:59:50.959Z,39.6030
2023-05-22T15:00:52.280Z,40.2420
2023-05-22T15:01:53.927Z,41.4930
2023-05-22T15:02:55.676Z,41.8465
2023-05-22T15:03:57.013Z,42.7757
2023-05-22T15:04:58.785Z,41.2605
2023-05-22T15:05:59.186Z,40.1006
2023-05-22T15:08:02.261Z,41.2011
2023-05-22T15:09:03.872Z,40.7814
2023-05-22T15:10:04.491Z,38.7499
2023-05-22T15:11:05.736Z,39.7712
2023-05-22T15:12:08.467Z,39.3566
2023-05-22T15:14:09.462Z,41.5911
2023-05-22T15:17:13.292Z,40.7498
2023-05-22T15:24:21.361Z,45.9563
2023-05-22T15:25:22.655Z,45.1900
2023-05-22T15:26:23.467Z,46.2963
2023-05-22T15:27:24.820Z,46.1685
2023-05-22T15:30:27.717Z,46.0111
2023-05-22T15:31:29.657Z,46.2149
2023-05-22T15:32:31.328Z,46.7257
2023-05-22T15:33:33.493Z,48.5620
2023-05-22T15:34:35.274Z,46.4806
2023-05-22T15:35:36.625Z,46.6116
2023-05-22T15:36:36.784Z,46.8313
2023-05-22T15:37:37.275Z,46.4455
2023-05-22T15:38:38.824Z,46.9131
2023-05-22T15:39:40.251Z,46.9993
2023-05-22T15:40:42.358Z,47.3575
2023-05-22T15:42:02.413Z,48.9325
2023-05-22T16:11:57.016Z,46.2761
2023-05-22T16:12:58.497Z,44.8086
2023-05-22T16:14:00.636Z,46.7912
2023-05-22T16:20:09.969Z,45.9739
2023-05-22T16:21:11.594Z,42.8168
2023-05-22T16:22:12.674Z,43.9955
2023-05-22T16:23:14.726Z,42.1721
2023-05-22T16:24:16.638Z,41.6997
2023-05-22T16:25:18.560Z,43.3255
2023-05-22T16:26:18.632Z,40.4379
2023-05-22T16:27:20.441Z,41.7729
2023-05-22T16:28:22.268Z,42.5502
2023-05-22T16:29:24.297Z,41.9385
2023-05-22T16:30:26.447Z,43.5094
2023-05-22T16:31:26.607Z,39.7103
2023-05-22T16:32:28.631Z,40.3118
2023-05-22T16:33:28.566Z,43.1356
2023-05-22T16:34:30.703Z,40.6788
2023-05-22T16:35:32.555Z,39.8704
2023-05-22T16:36:34.102Z,39.8316
2023-05-22T16:37:35.587Z,39.6077
2023-05-22T16:38:37.344Z,39.6515
2023-05-22T16:39:39.110Z,40.7085
2023-05-22T16:40:40.941Z,41.4291
2023-05-22T17:02:05.143Z,39.0598
2023-05-22T17:03:07.398Z,38.7317
2023-05-22T17:04:09.127Z,40.2740
2023-05-22T17:05:09.702Z,40.2927
2023-05-22T17:06:11.852Z,40.3211
2023-05-22T17:07:12.165Z,40.5428
2023-05-22T17:08:14.061Z,41.8908
2023-05-22T17:09:16.144Z,42.3523
2023-05-22T17:10:16.577Z,39.5580
2023-05-22T17:14:22.353Z,41.3014
2023-05-22T17:15:22.869Z,39.6278
2023-05-22T17:16:24.860Z,39.6828
2023-05-22T17:17:26.543Z,40.2744
2023-05-22T17:18:28.390Z,40.5711
2023-05-22T17:19:29.229Z,40.8212
2023-05-22T17:20:31.082Z,41.0352
2023-05-22T17:21:33.406Z,42.3896
2023-05-22T17:22:34.266Z,41.6095
2023-05-22T17:23:34.987Z,43.4899
2023-05-22T17:24:35.680Z,45.1375
2023-05-22T17:25:38.001Z,43.7035
2023-05-22T17:26:37.855Z,42.9047
2023-05-22T17:27:37.987Z,43.3872
2023-05-22T17:28:38.056Z,41.6981
2023-05-22T17:29:39.967Z,42.1115
2023-05-22T17:30:40.119Z,43.2550
2023-05-22T17:43:57.514Z,50.2275
2023-05-22T17:44:57.714Z,51.4486
2023-05-22T17:45:58.832Z,52.3211
2023-05-22T17:46:59.552Z,51.9365
2023-05-22T17:47:59.817Z,51.9091
2023-05-22T17:49:01.883Z,51.6551
2023-05-22T17:50:04.057Z,51.7053
2023-05-22T17:51:04.408Z,51.7648
2023-05-22T17:52:05.249Z,53.2912
2023-05-22T17:53:06.962Z,53.1651
2023-05-22T17:54:08.722Z,53.7813
2023-05-22T17:55:10.390Z,54.2650
2023-05-22T17:56:12.629Z,53.8892
2023-05-22T17:57:14.193Z,53.5973
2023-05-22T17:58:14.589Z,54.5384
2023-05-22T17:59:16.453Z,55.5491
2023-05-22T18:00:18.224Z,54.9094
2023-05-22T18:01:19.659Z,55.3504
2023-05-22T18:02:21.119Z,56.6732
2023-05-22T18:03:21.979Z,55.0401
2023-05-22T18:04:21.809Z,55.9810
2023-05-22T18:05:22.951Z,60.9313
2023-05-22T18:06:24.774Z,60.7705
2023-05-22T18:07:25.987Z,57.4132
2023-05-22T18:08:27.405Z,57.0949
2023-05-22T18:09:28.738Z,60.2241
2023-05-22T18:10:29.954Z,58.5960
2023-05-22T18:11:30.961Z,58.5822
2023-05-22T18:12:32.762Z,57.9175
2023-05-22T18:13:33.928Z,62.1586
2023-05-22T18:14:35.462Z,60.1741
2023-05-22T18:15:36.464Z,59.1773
2023-05-22T18:16:36.963Z,58.4350
2023-05-22T18:17:38.299Z,58.0793
2023-05-22T18:18:39.470Z,58.1701
2023-05-22T18:19:40.081Z,58.2174
2023-05-22T18:20:41.934Z,59.7134
2023-05-22T18:24:46.508Z,62.5135
2023-05-22T18:25:57.537Z,61.5883
2023-05-22T18:30:20.813Z,64.2067
2023-05-22T18:31:23.771Z,62.9852
2023-05-22T18:32:23.338Z,63.8422
2023-05-22T18:33:24.775Z,63.4771
2023-05-22T18:34:26.066Z,62.2011
2023-05-22T18:35:27.413Z,60.6499
2023-05-22T18:36:27.788Z,63.2812
2023-05-22T18:42:33.821Z,62.8311
2023-05-22T18:43:35.504Z,64.3047
2023-05-22T18:44:36.912Z,64.9557
2023-05-22T18:45:38.623Z,66.0602
2023-05-22T18:46:40.922Z,66.5373
2023-05-22T18:55:51.214Z,63.7584
2023-05-22T18:56:51.189Z,63.1649
2023-05-22T18:58:51.997Z,65.8385
2023-05-22T18:59:53.179Z,67.0530
2023-05-22T19:00:54.745Z,65.7488
2023-05-22T19:01:57.178Z,66.9787
2023-05-22T19:23:19.722Z,70.0771
2023-05-22T19:26:22.831Z,71.7578
2023-05-22T19:27:23.827Z,72.6838
2023-05-22T19:28:24.882Z,71.5139
2023-05-22T19:29:26.506Z,72.6946
2023-05-22T19:30:27.588Z,72.7676
2023-05-22T19:31:28.870Z,73.4899
2023-05-22T19:32:29.644Z,74.4451
2023-05-22T19:33:30.765Z,74.2147
2023-05-22T19:34:31.900Z,73.7975
2023-05-22T19:35:33.238Z,74.8061
2023-05-22T19:36:34.870Z,75.3201
2023-05-22T19:37:39.714Z,74.1163
2023-05-22T19:40:08.711Z,73.4127
2023-05-22T19:47:19.020Z,76.5390
2023-05-22T19:48:18.881Z,76.7568
2023-05-22T20:01:35.433Z,76.2375
2023-05-22T20:03:38.079Z,77.0379
2023-05-22T20:10:45.854Z,79.2309
2023-05-22T20:11:46.926Z,77.3653
2023-05-22T20:18:54.592Z,77.2383
2023-05-22T20:20:56.127Z,77.9253
2023-05-22T20:21:58.133Z,78.0063
2023-05-22T20:22:59.620Z,77.4492
2023-05-22T20:24:02.171Z,78.1877
2023-05-22T20:25:04.032Z,76.5983
2023-05-22T20:34:13.078Z,77.0555
2023-05-22T20:35:15.221Z,77.1629
2023-05-22T20:38:17.382Z,75.4024
2023-05-22T20:39:19.041Z,76.4433
2023-05-22T20:40:20.038Z,77.1844
2023-05-22T20:41:21.306Z,76.4595
2023-05-22T20:42:23.286Z,76.9694
2023-05-22T20:43:24.768Z,77.0844
2023-05-22T20:56:41.827Z,77.5168
2023-05-22T20:57:43.723Z,77.7879
2023-05-22T20:58:45.680Z,78.6056
2023-05-22T20:59:46.811Z,79.2420
2023-05-22T21:00:48.326Z,79.2440
2023-05-22T21:01:49.458Z,78.5842
2023-05-22T21:02:50.736Z,78.9261
2023-05-22T21:03:52.024Z,79.7293
2023-05-22T21:04:53.483Z,79.9722
2023-05-22T21:05:54.590Z,80.0750
2023-05-22T21:06:55.355Z,79.1818
2023-05-22T21:07:56.509Z,79.9089
2023-05-22T21:08:57.855Z,81.0229
2023-05-22T21:09:59.600Z,81.7093
2023-05-22T21:11:00.271Z,82.1904
2023-05-22T21:12:01.500Z,82.5823
2023-05-22T21:13:01.889Z,83.0815
2023-05-22T21:14:03.010Z,83.5252
2023-05-22T21:15:03.536Z,83.1593
2023-05-22T21:16:04.653Z,83.7562
2023-05-22T21:17:08.426Z,84.2007
2023-05-22T21:25:16.288Z,81.7189
2023-05-22T21:26:17.758Z,80.9873
2023-05-22T21:27:19.614Z,81.7920
2023-05-22T21:28:20.548Z,82.6155
2023-05-22T21:30:23.160Z,83.3688
2023-05-22T21:31:24.199Z,83.1367
2023-05-22T21:32:25.207Z,82.0352
2023-05-22T21:33:26.419Z,80.4835
2023-05-22T21:34:27.375Z,80.7636
2023-05-22T21:38:32.836Z,83.6538
2023-05-22T21:39:35.096Z,83.7270
2023-05-22T21:40:34.887Z,83.9022
2023-05-22T21:42:46.683Z,82.0410
2023-05-22T21:47:11.622Z,81.0345
2023-05-22T21:48:13.307Z,80.9263
2023-05-22T21:57:25.590Z,81.7716
2023-05-22T21:58:27.467Z,82.0520
2023-05-22T21:59:28.642Z,82.0366
2023-05-22T22:00:29.716Z,81.4154
2023-05-22T22:01:31.563Z,81.0638
2023-05-22T22:02:33.075Z,80.5713
2023-05-22T22:04:35.618Z,80.0907
2023-05-22T22:05:37.732Z,79.5508
2023-05-22T22:06:39.349Z,79.7681